sensor_id;sensor_type;location;lat;lon;timestamp;pressure;altitude;pressure_sealevel;temperature;humidity
69198;BME280;56311;50.298;8.514;2023-12-20T00:00:00;97560.0;;;5.5;69.9
69198;BME280;56311;50.298;8.514;2023-12-20T00:02:00;97560.0;;;5.5;71.2
69198;BME280;56311;50.298;8.514;2023-12-20T00:04:00;97560.0;;;5.5;71.3
69198;BME280;56311;50.298;8.514;2023-12-20T00:06:00;97550.0;;;5.5;71.9
69198;BME280;56311;50.298;8.514;2023-12-20T00:08:00;97550.0;;;5.5;70.6
69198;BME280;56311;50.298;8.514;2023-12-20T00:10:00;97550.0;;;5.5;71.8
69198;BME280;56311;50.298;8.514;2023-12-20T00:12:00;97550.0;;;5.5;71.4
69198;BME280;56311;50.298;8.514;2023-12-20T00:14:00;97550.0;;;5.5;72.7
69198;BME280;56311;50.298;8.514;2023-12-20T00:16:00;97550.0;;;5.5;72.9
69198;BME280;56311;50.298;8.514;2023-12-20T00:18:00;97560.0;;;5.5;71.4
69198;BME280;56311;50.298;8.514;2023-12-20T00:20:00;97550.0;;;5.4;71.4
69198;BME280;56311;50.298;8.514;2023-12-20T00:22:00;97550.0;;;5.5;72.0
69198;BME280;56311;50.298;8.514;2023-12-20T00:24:00;97550.0;;;5.4;71.6
69198;BME280;56311;50.298;8.514;2023-12-20T00:26:01;97540.0;;;5.4;72.5
69198;BME280;56311;50.298;8.514;2023-12-20T00:28:00;97540.0;;;5.4;72.6
69198;BME280;56311;50.298;8.514;2023-12-20T00:30:00;97540.0;;;5.4;71.8
69198;BME280;56311;50.298;8.514;2023-12-20T00:32:00;97540.0;;;5.4;71.5
69198;BME280;56311;50.298;8.514;2023-12-20T00:34:00;97540.0;;;5.4;73.1
69198;BME280;56311;50.298;8.514;2023-12-20T00:36:00;97560.0;;;5.4;72.8
69198;BME280;56311;50.298;8.514;2023-12-20T00:38:00;97550.0;;;5.4;72.9
69198;BME280;56311;50.298;8.514;2023-12-20T00:40:00;97560.0;;;5.4;72.1
69198;BME280;56311;50.298;8.514;2023-12-20T00:42:00;97550.0;;;5.4;72.0
69198;BME280;56311;50.298;8.514;2023-12-20T00:44:00;97560.0;;;5.4;71.8
69198;BME280;56311;50.298;8.514;2023-12-20T00:46:00;97550.0;;;5.4;71.4
69198;BME280;56311;50.298;8.514;2023-12-20T00:48:00;97550.0;;;5.4;72.2
69198;BME280;56311;50.298;8.514;2023-12-20T00:50:00;97560.0;;;5.3;71.4
69198;BME280;56311;50.298;8.514;2023-12-20T00:52:00;97550.0;;;5.3;72.3
69198;BME280;56311;50.298;8.514;2023-12-20T00:54:00;97550.0;;;5.3;71.9
69198;BME280;56311;50.298;8.514;2023-12-20T00:56:00;97550.0;;;5.3;72.3
69198;BME280;56311;50.298;8.514;2023-12-20T00:58:00;97550.0;;;5.3;72.2
69198;BME280;56311;50.298;8.514;2023-12-20T01:00:00;97540.0;;;5.3;73.2
69198;BME280;56311;50.298;8.514;2023-12-20T01:02:00;97540.0;;;5.3;72.6
69198;BME280;56311;50.298;8.514;2023-12-20T01:04:00;97540.0;;;5.3;71.9
69198;BME280;56311;50.298;8.514;2023-12-20T01:06:00;97530.0;;;5.3;70.5
69198;BME280;56311;50.298;8.514;2023-12-20T01:08:00;97520.0;;;5.3;70.8
69198;BME280;56311;50.298;8.514;2023-12-20T01:10:00;97520.0;;;5.3;70.9
69198;BME280;56311;50.298;8.514;2023-12-20T01:12:00;97530.0;;;5.3;71.3
69198;BME280;56311;50.298;8.514;2023-12-20T01:14:00;97530.0;;;5.3;71.6
69198;BME280;56311;50.298;8.514;2023-12-20T01:16:00;97520.0;;;5.3;70.7
69198;BME280;56311;50.298;8.514;2023-12-20T01:18:00;97520.0;;;5.3;70.8
69198;BME280;56311;50.298;8.514;2023-12-20T01:20:00;97520.0;;;5.3;69.0
69198;BME280;56311;50.298;8.514;2023-12-20T01:22:00;97510.0;;;5.3;70.7
69198;BME280;56311;50.298;8.514;2023-12-20T01:24:00;97510.0;;;5.3;70.6
69198;BME280;56311;50.298;8.514;2023-12-20T01:26:00;97510.0;;;5.3;68.7
69198;BME280;56311;50.298;8.514;2023-12-20T01:28:00;97510.0;;;5.3;68.8
69198;BME280;56311;50.298;8.514;2023-12-20T01:30:00;97520.0;;;5.3;71.2
69198;BME280;56311;50.298;8.514;2023-12-20T01:32:00;97520.0;;;5.3;70.3
69198;BME280;56311;50.298;8.514;2023-12-20T01:34:00;97520.0;;;5.3;70.4
69198;BME280;56311;50.298;8.514;2023-12-20T01:36:00;97520.0;;;5.3;70.7
69198;BME280;56311;50.298;8.514;2023-12-20T01:38:00;97520.0;;;5.3;70.6
69198;BME280;56311;50.298;8.514;2023-12-20T01:40:00;97530.0;;;5.3;70.0
69198;BME280;56311;50.298;8.514;2023-12-20T01:42:00;97540.0;;;5.2;70.7
69198;BME280;56311;50.298;8.514;2023-12-20T01:44:00;97540.0;;;5.3;70.0
69198;BME280;56311;50.298;8.514;2023-12-20T01:46:00;97540.0;;;5.3;70.0
69198;BME280;56311;50.298;8.514;2023-12-20T01:48:01;97540.0;;;5.3;70.9
69198;BME280;56311;50.298;8.514;2023-12-20T01:50:00;97540.0;;;5.3;71.2
69198;BME280;56311;50.298;8.514;2023-12-20T01:52:00;97550.0;;;5.3;71.2
69198;BME280;56311;50.298;8.514;2023-12-20T01:54:00;97550.0;;;5.3;70.7
69198;BME280;56311;50.298;8.514;2023-12-20T01:56:01;97540.0;;;5.3;70.9
69198;BME280;56311;50.298;8.514;2023-12-20T01:58:01;97530.0;;;5.3;70.8
69198;BME280;56311;50.298;8.514;2023-12-20T02:00:00;97540.0;;;5.3;70.6
69198;BME280;56311;50.298;8.514;2023-12-20T02:02:02;97550.0;;;5.3;70.6
69198;BME280;56311;50.298;8.514;2023-12-20T02:04:00;97540.0;;;5.3;70.4
69198;BME280;56311;50.298;8.514;2023-12-20T02:06:00;97530.0;;;5.3;70.2
69198;BME280;56311;50.298;8.514;2023-12-20T02:08:00;97540.0;;;5.3;69.8
69198;BME280;56311;50.298;8.514;2023-12-20T02:10:00;97530.0;;;5.3;69.7
69198;BME280;56311;50.298;8.514;2023-12-20T02:12:00;97520.0;;;5.3;69.4
69198;BME280;56311;50.298;8.514;2023-12-20T02:14:00;97520.0;;;5.3;69.9
69198;BME280;56311;50.298;8.514;2023-12-20T02:16:00;97510.0;;;5.3;70.3
69198;BME280;56311;50.298;8.514;2023-12-20T02:18:00;97510.0;;;5.3;71.0
69198;BME280;56311;50.298;8.514;2023-12-20T02:20:00;97510.0;;;5.3;70.8
69198;BME280;56311;50.298;8.514;2023-12-20T02:22:08;97510.0;;;5.3;69.8
69198;BME280;56311;50.298;8.514;2023-12-20T02:24:00;97520.0;;;5.3;70.1
69198;BME280;56311;50.298;8.514;2023-12-20T02:26:00;97520.0;;;5.3;69.7
69198;BME280;56311;50.298;8.514;2023-12-20T02:28:01;97520.0;;;5.3;70.3
69198;BME280;56311;50.298;8.514;2023-12-20T02:30:00;97510.0;;;5.3;70.9
69198;BME280;56311;50.298;8.514;2023-12-20T02:32:00;97500.0;;;5.3;70.7
69198;BME280;56311;50.298;8.514;2023-12-20T02:34:00;97500.0;;;5.3;69.5
69198;BME280;56311;50.298;8.514;2023-12-20T02:36:01;97500.0;;;5.3;69.8
69198;BME280;56311;50.298;8.514;2023-12-20T02:38:00;97520.0;;;5.3;71.0
69198;BME280;56311;50.298;8.514;2023-12-20T02:40:00;97510.0;;;5.3;69.3
69198;BME280;56311;50.298;8.514;2023-12-20T02:42:00;97510.0;;;5.4;69.6
69198;BME280;56311;50.298;8.514;2023-12-20T02:44:01;97520.0;;;5.4;70.8
69198;BME280;56311;50.298;8.514;2023-12-20T02:46:00;97510.0;;;5.4;70.7
69198;BME280;56311;50.298;8.514;2023-12-20T02:48:02;97510.0;;;5.4;71.7
69198;BME280;56311;50.298;8.514;2023-12-20T02:50:00;97510.0;;;5.5;71.6
69198;BME280;56311;50.298;8.514;2023-12-20T02:52:00;97520.0;;;5.5;72.3
69198;BME280;56311;50.298;8.514;2023-12-20T02:54:00;97530.0;;;5.5;71.1
69198;BME280;56311;50.298;8.514;2023-12-20T02:56:00;97530.0;;;5.5;70.9
69198;BME280;56311;50.298;8.514;2023-12-20T02:58:00;97530.0;;;5.6;70.9
69198;BME280;56311;50.298;8.514;2023-12-20T03:00:00;97530.0;;;5.5;71.8
69198;BME280;56311;50.298;8.514;2023-12-20T03:02:00;97530.0;;;5.6;73.1
69198;BME280;56311;50.298;8.514;2023-12-20T03:04:00;97530.0;;;5.5;73.3
69198;BME280;56311;50.298;8.514;2023-12-20T03:06:00;97530.0;;;5.6;73.1
69198;BME280;56311;50.298;8.514;2023-12-20T03:08:00;97530.0;;;5.5;73.0
69198;BME280;56311;50.298;8.514;2023-12-20T03:10:00;97540.0;;;5.5;73.6
69198;BME280;56311;50.298;8.514;2023-12-20T03:12:00;97540.0;;;5.5;73.6
69198;BME280;56311;50.298;8.514;2023-12-20T03:14:01;97550.0;;;5.6;73.7
69198;BME280;56311;50.298;8.514;2023-12-20T03:16:00;97540.0;;;5.6;73.1
69198;BME280;56311;50.298;8.514;2023-12-20T03:18:00;97550.0;;;5.6;73.7
69198;BME280;56311;50.298;8.514;2023-12-20T03:20:01;97550.0;;;5.6;73.6
69198;BME280;56311;50.298;8.514;2023-12-20T03:22:00;97550.0;;;5.6;74.5
69198;BME280;56311;50.298;8.514;2023-12-20T03:24:00;97560.0;;;5.7;74.8
69198;BME280;56311;50.298;8.514;2023-12-20T03:26:00;97570.0;;;5.6;75.0
69198;BME280;56311;50.298;8.514;2023-12-20T03:28:00;97570.0;;;5.6;75.5
69198;BME280;56311;50.298;8.514;2023-12-20T03:30:00;97570.0;;;5.6;76.7
69198;BME280;56311;50.298;8.514;2023-12-20T03:32:00;97580.0;;;5.6;75.8
69198;BME280;56311;50.298;8.514;2023-12-20T03:34:00;97570.0;;;5.6;76.0
69198;BME280;56311;50.298;8.514;2023-12-20T03:36:00;97580.0;;;5.6;75.5
69198;BME280;56311;50.298;8.514;2023-12-20T03:38:00;97570.0;;;5.6;74.8
69198;BME280;56311;50.298;8.514;2023-12-20T03:40:00;97570.0;;;5.6;75.5
69198;BME280;56311;50.298;8.514;2023-12-20T03:42:00;97570.0;;;5.5;75.0
69198;BME280;56311;50.298;8.514;2023-12-20T03:44:00;97580.0;;;5.5;75.1
69198;BME280;56311;50.298;8.514;2023-12-20T03:46:00;97580.0;;;5.5;75.7
69198;BME280;56311;50.298;8.514;2023-12-20T03:48:00;97580.0;;;5.5;75.1
69198;BME280;56311;50.298;8.514;2023-12-20T03:50:00;97570.0;;;5.5;75.5
69198;BME280;56311;50.298;8.514;2023-12-20T03:52:00;97570.0;;;5.5;75.0
69198;BME280;56311;50.298;8.514;2023-12-20T03:54:00;97570.0;;;5.5;75.5
69198;BME280;56311;50.298;8.514;2023-12-20T03:56:00;97580.0;;;5.5;74.6
69198;BME280;56311;50.298;8.514;2023-12-20T03:58:00;97570.0;;;5.5;74.3
69198;BME280;56311;50.298;8.514;2023-12-20T04:00:00;97580.0;;;5.5;75.2
69198;BME280;56311;50.298;8.514;2023-12-20T04:02:00;97590.0;;;5.5;74.2
69198;BME280;56311;50.298;8.514;2023-12-20T04:04:00;97580.0;;;5.5;74.4
69198;BME280;56311;50.298;8.514;2023-12-20T04:06:00;97580.0;;;5.5;75.2
69198;BME280;56311;50.298;8.514;2023-12-20T04:08:01;97570.0;;;5.5;74.3
69198;BME280;56311;50.298;8.514;2023-12-20T04:10:01;97570.0;;;5.5;73.8
69198;BME280;56311;50.298;8.514;2023-12-20T04:12:00;97570.0;;;5.5;75.2
69198;BME280;56311;50.298;8.514;2023-12-20T04:14:00;97570.0;;;5.5;74.6
69198;BME280;56311;50.298;8.514;2023-12-20T04:16:00;97570.0;;;5.5;73.9
69198;BME280;56311;50.298;8.514;2023-12-20T04:18:00;97580.0;;;5.5;74.6
69198;BME280;56311;50.298;8.514;2023-12-20T04:20:00;97590.0;;;5.5;74.5
69198;BME280;56311;50.298;8.514;2023-12-20T04:22:00;97590.0;;;5.5;75.1
69198;BME280;56311;50.298;8.514;2023-12-20T04:24:00;97590.0;;;5.5;73.9
69198;BME280;56311;50.298;8.514;2023-12-20T04:26:00;97590.0;;;5.5;74.7
69198;BME280;56311;50.298;8.514;2023-12-20T04:28:00;97590.0;;;5.5;74.6
69198;BME280;56311;50.298;8.514;2023-12-20T04:30:00;97590.0;;;5.5;75.3
69198;BME280;56311;50.298;8.514;2023-12-20T04:32:00;97590.0;;;5.4;74.5
69198;BME280;56311;50.298;8.514;2023-12-20T04:34:00;97590.0;;;5.4;75.2
69198;BME280;56311;50.298;8.514;2023-12-20T04:36:00;97590.0;;;5.3;75.1
69198;BME280;56311;50.298;8.514;2023-12-20T04:38:00;97600.0;;;5.3;75.3
69198;BME280;56311;50.298;8.514;2023-12-20T04:40:00;97620.0;;;5.2;74.0
69198;BME280;56311;50.298;8.514;2023-12-20T04:42:00;97610.0;;;5.3;74.3
69198;BME280;56311;50.298;8.514;2023-12-20T04:44:00;97610.0;;;5.3;73.2
69198;BME280;56311;50.298;8.514;2023-12-20T04:46:00;97600.0;;;5.2;72.9
69198;BME280;56311;50.298;8.514;2023-12-20T04:48:01;97610.0;;;5.2;73.2
69198;BME280;56311;50.298;8.514;2023-12-20T04:50:00;97620.0;;;5.1;73.4
69198;BME280;56311;50.298;8.514;2023-12-20T04:52:00;97620.0;;;5.0;72.4
69198;BME280;56311;50.298;8.514;2023-12-20T04:54:00;97630.0;;;5.0;71.5
69198;BME280;56311;50.298;8.514;2023-12-20T04:56:00;97620.0;;;4.9;72.0
69198;BME280;56311;50.298;8.514;2023-12-20T04:58:00;97620.0;;;4.8;72.4
69198;BME280;56311;50.298;8.514;2023-12-20T05:00:00;97620.0;;;4.8;72.2
69198;BME280;56311;50.298;8.514;2023-12-20T05:02:00;97630.0;;;4.7;71.0
69198;BME280;56311;50.298;8.514;2023-12-20T05:04:00;97630.0;;;4.7;70.6
69198;BME280;56311;50.298;8.514;2023-12-20T05:06:00;97630.0;;;4.6;70.6
69198;BME280;56311;50.298;8.514;2023-12-20T05:08:00;97630.0;;;4.5;70.0
69198;BME280;56311;50.298;8.514;2023-12-20T05:10:00;97630.0;;;4.5;69.6
69198;BME280;56311;50.298;8.514;2023-12-20T05:12:00;97640.0;;;4.5;69.6
69198;BME280;56311;50.298;8.514;2023-12-20T05:14:01;97640.0;;;4.5;69.4
69198;BME280;56311;50.298;8.514;2023-12-20T05:16:00;97640.0;;;4.5;69.4
69198;BME280;56311;50.298;8.514;2023-12-20T05:18:00;97650.0;;;4.5;69.6
69198;BME280;56311;50.298;8.514;2023-12-20T05:20:00;97630.0;;;4.5;70.4
69198;BME280;56311;50.298;8.514;2023-12-20T05:22:00;97630.0;;;4.5;69.9
69198;BME280;56311;50.298;8.514;2023-12-20T05:24:00;97620.0;;;4.6;69.7
69198;BME280;56311;50.298;8.514;2023-12-20T05:26:00;97630.0;;;4.5;68.9
69198;BME280;56311;50.298;8.514;2023-12-20T05:28:00;97630.0;;;4.5;69.3
69198;BME280;56311;50.298;8.514;2023-12-20T05:30:00;97630.0;;;4.5;68.8
69198;BME280;56311;50.298;8.514;2023-12-20T05:32:00;97640.0;;;4.5;69.0
69198;BME280;56311;50.298;8.514;2023-12-20T05:34:00;97630.0;;;4.5;69.2
69198;BME280;56311;50.298;8.514;2023-12-20T05:36:00;97630.0;;;4.5;70.0
69198;BME280;56311;50.298;8.514;2023-12-20T05:38:00;97630.0;;;4.4;70.2
69198;BME280;56311;50.298;8.514;2023-12-20T05:40:00;97640.0;;;4.4;69.5
69198;BME280;56311;50.298;8.514;2023-12-20T05:42:00;97640.0;;;4.4;69.9
69198;BME280;56311;50.298;8.514;2023-12-20T05:44:00;97640.0;;;4.4;70.5
69198;BME280;56311;50.298;8.514;2023-12-20T05:46:00;97630.0;;;4.4;70.2
69198;BME280;56311;50.298;8.514;2023-12-20T05:48:00;97630.0;;;4.4;70.0
69198;BME280;56311;50.298;8.514;2023-12-20T05:50:00;97640.0;;;4.4;69.2
69198;BME280;56311;50.298;8.514;2023-12-20T05:52:00;97630.0;;;4.4;70.2
69198;BME280;56311;50.298;8.514;2023-12-20T05:54:00;97640.0;;;4.4;68.6
69198;BME280;56311;50.298;8.514;2023-12-20T05:56:00;97640.0;;;4.4;68.8
69198;BME280;56311;50.298;8.514;2023-12-20T05:58:00;97630.0;;;4.3;68.9
69198;BME280;56311;50.298;8.514;2023-12-20T06:00:00;97640.0;;;4.3;69.0
69198;BME280;56311;50.298;8.514;2023-12-20T06:02:00;97640.0;;;4.3;69.2
69198;BME280;56311;50.298;8.514;2023-12-20T06:04:00;97630.0;;;4.3;69.9
69198;BME280;56311;50.298;8.514;2023-12-20T06:06:04;97640.0;;;4.2;69.6
69198;BME280;56311;50.298;8.514;2023-12-20T06:08:00;97650.0;;;4.2;69.7
69198;BME280;56311;50.298;8.514;2023-12-20T06:10:00;97650.0;;;4.2;69.3
69198;BME280;56311;50.298;8.514;2023-12-20T06:12:01;97650.0;;;4.1;68.9
69198;BME280;56311;50.298;8.514;2023-12-20T06:14:00;97650.0;;;4.2;69.1
69198;BME280;56311;50.298;8.514;2023-12-20T06:16:01;97650.0;;;4.1;69.8
69198;BME280;56311;50.298;8.514;2023-12-20T06:18:00;97650.0;;;4.2;69.2
69198;BME280;56311;50.298;8.514;2023-12-20T06:20:01;97650.0;;;4.1;69.3
69198;BME280;56311;50.298;8.514;2023-12-20T06:22:00;97640.0;;;4.2;69.0
69198;BME280;56311;50.298;8.514;2023-12-20T06:24:00;97650.0;;;4.1;68.4
69198;BME280;56311;50.298;8.514;2023-12-20T06:26:00;97650.0;;;4.1;68.2
69198;BME280;56311;50.298;8.514;2023-12-20T06:28:00;97640.0;;;4.1;68.4
69198;BME280;56311;50.298;8.514;2023-12-20T06:30:00;97630.0;;;4.1;69.4
69198;BME280;56311;50.298;8.514;2023-12-20T06:32:00;97640.0;;;4.0;69.8
69198;BME280;56311;50.298;8.514;2023-12-20T06:34:00;97640.0;;;3.9;69.2
69198;BME280;56311;50.298;8.514;2023-12-20T06:36:00;97650.0;;;3.9;69.8
69198;BME280;56311;50.298;8.514;2023-12-20T06:38:00;97640.0;;;3.9;69.4
69198;BME280;56311;50.298;8.514;2023-12-20T06:40:01;97650.0;;;4.0;69.7
69198;BME280;56311;50.298;8.514;2023-12-20T06:42:01;97660.0;;;4.0;69.0
69198;BME280;56311;50.298;8.514;2023-12-20T06:44:00;97670.0;;;4.0;68.4
69198;BME280;56311;50.298;8.514;2023-12-20T06:46:00;97660.0;;;4.1;68.7
69198;BME280;56311;50.298;8.514;2023-12-20T06:48:01;97670.0;;;4.1;69.6
69198;BME280;56311;50.298;8.514;2023-12-20T06:50:00;97670.0;;;4.1;69.8
69198;BME280;56311;50.298;8.514;2023-12-20T06:52:00;97670.0;;;4.1;69.9
69198;BME280;56311;50.298;8.514;2023-12-20T06:54:00;97660.0;;;4.1;69.3
69198;BME280;56311;50.298;8.514;2023-12-20T06:56:00;97660.0;;;4.1;69.2
69198;BME280;56311;50.298;8.514;2023-12-20T06:58:00;97660.0;;;4.1;69.5
69198;BME280;56311;50.298;8.514;2023-12-20T07:00:00;97670.0;;;4.1;68.4
69198;BME280;56311;50.298;8.514;2023-12-20T07:02:00;97670.0;;;4.1;68.9
69198;BME280;56311;50.298;8.514;2023-12-20T07:04:00;97680.0;;;4.2;69.2
69198;BME280;56311;50.298;8.514;2023-12-20T07:06:00;97680.0;;;4.2;69.2
69198;BME280;56311;50.298;8.514;2023-12-20T07:08:00;97680.0;;;4.3;68.7
69198;BME280;56311;50.298;8.514;2023-12-20T07:10:00;97680.0;;;4.3;69.0
69198;BME280;56311;50.298;8.514;2023-12-20T07:12:00;97680.0;;;4.3;68.3
69198;BME280;56311;50.298;8.514;2023-12-20T07:14:00;97680.0;;;4.2;68.3
69198;BME280;56311;50.298;8.514;2023-12-20T07:16:00;97680.0;;;4.2;67.6
69198;BME280;56311;50.298;8.514;2023-12-20T07:18:00;97680.0;;;4.2;68.5
69198;BME280;56311;50.298;8.514;2023-12-20T07:20:01;97680.0;;;4.2;69.0
69198;BME280;56311;50.298;8.514;2023-12-20T07:22:00;97680.0;;;4.2;68.8
69198;BME280;56311;50.298;8.514;2023-12-20T07:24:00;97680.0;;;4.2;68.9
69198;BME280;56311;50.298;8.514;2023-12-20T07:26:00;97690.0;;;4.2;68.1
69198;BME280;56311;50.298;8.514;2023-12-20T07:28:00;97700.0;;;4.2;68.0
69198;BME280;56311;50.298;8.514;2023-12-20T07:30:01;97690.0;;;4.2;68.7
69198;BME280;56311;50.298;8.514;2023-12-20T07:32:00;97680.0;;;4.3;68.1
69198;BME280;56311;50.298;8.514;2023-12-20T07:34:00;97690.0;;;4.2;68.5
69198;BME280;56311;50.298;8.514;2023-12-20T07:36:00;97690.0;;;4.2;69.1
69198;BME280;56311;50.298;8.514;2023-12-20T07:38:00;97690.0;;;4.2;68.5
69198;BME280;56311;50.298;8.514;2023-12-20T07:40:00;97680.0;;;4.2;68.5
69198;BME280;56311;50.298;8.514;2023-12-20T07:42:00;97690.0;;;4.2;67.9
69198;BME280;56311;50.298;8.514;2023-12-20T07:44:00;97690.0;;;4.2;67.3
69198;BME280;56311;50.298;8.514;2023-12-20T07:46:04;97690.0;;;4.2;67.7
69198;BME280;56311;50.298;8.514;2023-12-20T07:48:00;97680.0;;;4.2;69.4
69198;BME280;56311;50.298;8.514;2023-12-20T07:50:00;97690.0;;;4.2;69.9
69198;BME280;56311;50.298;8.514;2023-12-20T07:52:00;97690.0;;;4.3;69.2
69198;BME280;56311;50.298;8.514;2023-12-20T07:54:01;97700.0;;;4.3;68.7
69198;BME280;56311;50.298;8.514;2023-12-20T07:56:00;97700.0;;;4.3;68.7
69198;BME280;56311;50.298;8.514;2023-12-20T07:58:00;97710.0;;;4.3;68.5
69198;BME280;56311;50.298;8.514;2023-12-20T08:00:00;97700.0;;;4.3;68.8
69198;BME280;56311;50.298;8.514;2023-12-20T08:02:00;97710.0;;;4.3;68.9
69198;BME280;56311;50.298;8.514;2023-12-20T08:04:00;97710.0;;;4.3;68.3
69198;BME280;56311;50.298;8.514;2023-12-20T08:06:01;97710.0;;;4.3;69.8
69198;BME280;56311;50.298;8.514;2023-12-20T08:08:00;97700.0;;;4.3;69.5
69198;BME280;56311;50.298;8.514;2023-12-20T08:10:00;97710.0;;;4.3;68.7
69198;BME280;56311;50.298;8.514;2023-12-20T08:12:00;97710.0;;;4.3;68.5
69198;BME280;56311;50.298;8.514;2023-12-20T08:14:01;97710.0;;;4.3;68.9
69198;BME280;56311;50.298;8.514;2023-12-20T08:16:00;97710.0;;;4.3;69.0
69198;BME280;56311;50.298;8.514;2023-12-20T08:18:00;97720.0;;;4.4;68.3
69198;BME280;56311;50.298;8.514;2023-12-20T08:20:00;97710.0;;;4.3;68.2
69198;BME280;56311;50.298;8.514;2023-12-20T08:22:00;97710.0;;;4.4;68.0
69198;BME280;56311;50.298;8.514;2023-12-20T08:24:00;97710.0;;;4.5;68.3
69198;BME280;56311;50.298;8.514;2023-12-20T08:26:03;97710.0;;;4.9;66.6
69198;BME280;56311;50.298;8.514;2023-12-20T08:28:01;97710.0;;;5.0;65.7
69198;BME280;56311;50.298;8.514;2023-12-20T08:30:00;97710.0;;;5.0;66.2
69198;BME280;56311;50.298;8.514;2023-12-20T08:32:00;97710.0;;;4.9;67.7
69198;BME280;56311;50.298;8.514;2023-12-20T08:34:00;97710.0;;;4.8;68.1
69198;BME280;56311;50.298;8.514;2023-12-20T08:36:00;97710.0;;;4.8;68.2
69198;BME280;56311;50.298;8.514;2023-12-20T08:38:00;97720.0;;;4.8;67.8
69198;BME280;56311;50.298;8.514;2023-12-20T08:40:00;97720.0;;;4.7;67.7
69198;BME280;56311;50.298;8.514;2023-12-20T08:42:00;97710.0;;;4.7;66.5
69198;BME280;56311;50.298;8.514;2023-12-20T08:44:00;97720.0;;;4.7;66.9
69198;BME280;56311;50.298;8.514;2023-12-20T08:46:01;97720.0;;;4.8;67.9
69198;BME280;56311;50.298;8.514;2023-12-20T08:48:01;97720.0;;;4.7;67.0
69198;BME280;56311;50.298;8.514;2023-12-20T08:50:00;97720.0;;;4.7;68.0
69198;BME280;56311;50.298;8.514;2023-12-20T08:52:00;97720.0;;;4.8;68.0
69198;BME280;56311;50.298;8.514;2023-12-20T08:54:00;97720.0;;;4.8;68.7
69198;BME280;56311;50.298;8.514;2023-12-20T08:56:00;97720.0;;;4.7;69.3
69198;BME280;56311;50.298;8.514;2023-12-20T08:58:00;97730.0;;;4.7;68.6
69198;BME280;56311;50.298;8.514;2023-12-20T09:00:00;97720.0;;;4.8;68.1
69198;BME280;56311;50.298;8.514;2023-12-20T09:02:00;97720.0;;;4.8;67.0
69198;BME280;56311;50.298;8.514;2023-12-20T09:04:00;97720.0;;;4.8;68.2
69198;BME280;56311;50.298;8.514;2023-12-20T09:06:00;97720.0;;;4.9;67.5
69198;BME280;56311;50.298;8.514;2023-12-20T09:08:00;97720.0;;;4.9;67.8
69198;BME280;56311;50.298;8.514;2023-12-20T09:10:00;97730.0;;;4.9;68.5
69198;BME280;56311;50.298;8.514;2023-12-20T09:12:00;97720.0;;;4.9;68.5
69198;BME280;56311;50.298;8.514;2023-12-20T09:14:00;97730.0;;;4.9;68.4
69198;BME280;56311;50.298;8.514;2023-12-20T09:16:01;97720.0;;;4.9;67.9
69198;BME280;56311;50.298;8.514;2023-12-20T09:18:01;97720.0;;;4.9;67.9
69198;BME280;56311;50.298;8.514;2023-12-20T09:20:00;97720.0;;;4.9;67.7
69198;BME280;56311;50.298;8.514;2023-12-20T09:22:00;97730.0;;;4.9;68.4
69198;BME280;56311;50.298;8.514;2023-12-20T09:24:00;97720.0;;;4.9;68.1
69198;BME280;56311;50.298;8.514;2023-12-20T09:26:00;97740.0;;;4.9;69.1
69198;BME280;56311;50.298;8.514;2023-12-20T09:28:00;97740.0;;;5.2;66.5
69198;BME280;56311;50.298;8.514;2023-12-20T09:30:00;97730.0;;;5.4;65.4
69198;BME280;56311;50.298;8.514;2023-12-20T09:32:00;97730.0;;;5.4;66.0
69198;BME280;56311;50.298;8.514;2023-12-20T09:34:00;97730.0;;;5.3;67.2
69198;BME280;56311;50.298;8.514;2023-12-20T09:36:00;97730.0;;;5.2;66.2
69198;BME280;56311;50.298;8.514;2023-12-20T09:38:00;97740.0;;;5.2;66.7
69198;BME280;56311;50.298;8.514;2023-12-20T09:40:00;97740.0;;;5.2;65.9
69198;BME280;56311;50.298;8.514;2023-12-20T09:42:02;97750.0;;;5.2;66.2
69198;BME280;56311;50.298;8.514;2023-12-20T09:44:02;97740.0;;;5.2;67.0
69198;BME280;56311;50.298;8.514;2023-12-20T09:46:03;97740.0;;;5.3;66.2
69198;BME280;56311;50.298;8.514;2023-12-20T09:48:01;97750.0;;;5.3;66.8
69198;BME280;56311;50.298;8.514;2023-12-20T09:50:01;97750.0;;;5.3;66.4
69198;BME280;56311;50.298;8.514;2023-12-20T09:52:00;97740.0;;;5.3;66.3
69198;BME280;56311;50.298;8.514;2023-12-20T09:54:02;97730.0;;;5.4;65.9
69198;BME280;56311;50.298;8.514;2023-12-20T09:56:01;97730.0;;;5.4;65.8
69198;BME280;56311;50.298;8.514;2023-12-20T09:58:01;97730.0;;;5.5;65.2
69198;BME280;56311;50.298;8.514;2023-12-20T10:00:01;97730.0;;;5.6;65.0
69198;BME280;56311;50.298;8.514;2023-12-20T10:02:01;97730.0;;;5.7;64.8
69198;BME280;56311;50.298;8.514;2023-12-20T10:04:01;97740.0;;;5.8;65.7
69198;BME280;56311;50.298;8.514;2023-12-20T10:06:00;97740.0;;;5.9;64.9
69198;BME280;56311;50.298;8.514;2023-12-20T10:08:00;97740.0;;;5.9;65.3
69198;BME280;56311;50.298;8.514;2023-12-20T10:10:01;97740.0;;;5.9;65.6
69198;BME280;56311;50.298;8.514;2023-12-20T10:12:01;97740.0;;;6.0;64.1
69198;BME280;56311;50.298;8.514;2023-12-20T10:14:00;97740.0;;;6.1;64.9
69198;BME280;56311;50.298;8.514;2023-12-20T10:16:00;97730.0;;;6.1;65.7
69198;BME280;56311;50.298;8.514;2023-12-20T10:18:00;97720.0;;;6.0;65.3
69198;BME280;56311;50.298;8.514;2023-12-20T10:20:00;97720.0;;;6.0;64.6
69198;BME280;56311;50.298;8.514;2023-12-20T10:22:00;97710.0;;;6.0;65.2
69198;BME280;56311;50.298;8.514;2023-12-20T10:24:00;97700.0;;;5.9;65.6
69198;BME280;56311;50.298;8.514;2023-12-20T10:26:00;97690.0;;;5.9;66.2
69198;BME280;56311;50.298;8.514;2023-12-20T10:28:09;97680.0;;;5.8;66.2
69198;BME280;56311;50.298;8.514;2023-12-20T10:30:00;97690.0;;;5.7;67.1
69198;BME280;56311;50.298;8.514;2023-12-20T10:34:01;97690.0;;;5.5;66.2
69198;BME280;56311;50.298;8.514;2023-12-20T10:36:00;97690.0;;;5.5;66.4
69198;BME280;56311;50.298;8.514;2023-12-20T10:38:04;97690.0;;;5.5;66.0
69198;BME280;56311;50.298;8.514;2023-12-20T10:40:03;97670.0;;;5.5;65.8
69198;BME280;56311;50.298;8.514;2023-12-20T10:42:00;97680.0;;;5.5;65.8
69198;BME280;56311;50.298;8.514;2023-12-20T10:44:02;97670.0;;;5.5;65.0
69198;BME280;56311;50.298;8.514;2023-12-20T10:46:03;97670.0;;;5.6;64.8
69198;BME280;56311;50.298;8.514;2023-12-20T10:48:02;97670.0;;;5.7;64.8
69198;BME280;56311;50.298;8.514;2023-12-20T10:50:01;97670.0;;;5.8;64.5
69198;BME280;56311;50.298;8.514;2023-12-20T10:52:02;97680.0;;;5.8;64.6
69198;BME280;56311;50.298;8.514;2023-12-20T10:54:00;97670.0;;;5.8;64.2
69198;BME280;56311;50.298;8.514;2023-12-20T10:56:02;97670.0;;;5.9;63.4
69198;BME280;56311;50.298;8.514;2023-12-20T10:58:01;97670.0;;;6.0;63.1
69198;BME280;56311;50.298;8.514;2023-12-20T11:00:01;97660.0;;;6.0;62.4
69198;BME280;56311;50.298;8.514;2023-12-20T11:02:02;97670.0;;;6.1;63.0
69198;BME280;56311;50.298;8.514;2023-12-20T11:04:01;97660.0;;;6.1;62.3
69198;BME280;56311;50.298;8.514;2023-12-20T11:06:05;97670.0;;;6.2;62.5
69198;BME280;56311;50.298;8.514;2023-12-20T11:08:03;97670.0;;;6.3;62.6
69198;BME280;56311;50.298;8.514;2023-12-20T11:10:16;97670.0;;;6.5;60.2
69198;BME280;56311;50.298;8.514;2023-12-20T11:12:06;97670.0;;;6.6;60.0